Archival Weather

Ahwaz

Ahwaz, Iran (OIAW)

Report from: Sunday, October 1, 2023 5:00 PM +0330
Current time: Friday, July 19, 2024 5:47 AM +0330

Current weather – Weather history – Daily summaries
Weather forecast

Temperature38.0°C (100.4°F)
Heat index35.6°C (96.1°F)
Dew point6.0°C (42.8°F)
Winds 10 kts (5.1 m/s, 11.5 mph) West-Northwest (290°)
Clouds Sky clear
Altimeter29.74 in.Hg (1007 mB)
Relative humidity14 %
Density altitude2,942 ft. (897 m)
Remarks Ceiling and visibility OK
Flight conditions Visual Meteorological Conditions
Raw dataOIAW 011330Z 29010KT CAVOK 38/06 Q1007
An error has occurred. This application may no longer respond until reloaded. Reload 🗙